KLAX/LAX METAR and TAF weather

Enter ICAO airport designator
Station Type Date Time Source
KLAX METAR 2021/04/17 02:53 UTC NOAA

KLAX 170253Z 24008KT 10SM FEW013 14/09 A2993 RMK AO2 SLP135 T01390089 53006


Station Type Date Time Source
KLAX Decoded METAR 2021/04/17 02:53 UTC NOAA

LOS ANGELES INTERNTL AIRPORT, CA, United States (KLAX) 33-56N 118-23W 46M
Apr 16, 2021 - 10:53 PM EDT / 2021.04.17 0253 UTC
Wind: from the WSW (240 degrees) at 9 MPH (8 KT):0
Visibility: 10 mile(s):0
Sky conditions: mostly clear
Temperature: 57.0 F (13.9 C)
Dew Point: 48.0 F (8.9 C)
Relative Humidity: 71%
Pressure (altimeter): 29.93 in. Hg (1013 hPa)
Pressure tendency: 0.02 inches (0.6 hPa) higher than three hours ago
ob: KLAX 170253Z 24008KT 10SM FEW013 14/09 A2993 RMK AO2 SLP135 T01390089 53006
cycle: 3

Station Type Date Time Source
KLAX TAF 2021/04/17 03:58 UTC NOAA

TAF
AMD KLAX 170258Z 1703/1806 26006KT P6SM SKC
FM171000 08003KT 6SM BR BKN011
FM171700 25006KT P6SM SCT015
FM172000 26012KT P6SM SKC
FM180400 25006KT P6SM SKC

Example: see airport list